createdAt,value
2023-03-01T00:01:36.549Z,-4.94
2023-03-01T00:04:04.640Z,-4.95
2023-03-01T00:06:32.974Z,-4.93
2023-03-01T00:09:01.189Z,-4.92
2023-03-01T00:11:31.743Z,-4.90
2023-03-01T00:14:06.147Z,-4.89
2023-03-01T00:16:46.736Z,-4.93
2023-03-01T00:19:17.954Z,-4.93
2023-03-01T00:21:46.474Z,-4.95
2023-03-01T00:24:14.738Z,-4.97
2023-03-01T00:26:42.604Z,-4.98
2023-03-01T00:29:10.763Z,-5.01
2023-03-01T00:31:38.687Z,-5.07
2023-03-01T00:34:07.409Z,-5.11
2023-03-01T00:36:37.593Z,-5.12
2023-03-01T00:39:10.934Z,-5.14
2023-03-01T00:41:39.045Z,-5.18
2023-03-01T00:44:06.990Z,-5.21
2023-03-01T00:46:37.649Z,-5.21
2023-03-01T00:49:06.224Z,-5.18
2023-03-01T00:51:34.604Z,-5.18
2023-03-01T00:54:03.663Z,-5.20
2023-03-01T00:56:32.443Z,-5.20
2023-03-01T00:59:01.664Z,-5.24
2023-03-01T01:01:31.909Z,-5.28
2023-03-01T01:04:04.881Z,-5.29
2023-03-01T01:06:36.523Z,-5.33
2023-03-01T01:09:06.759Z,-5.37
2023-03-01T01:11:36.492Z,-5.38
2023-03-01T01:14:05.742Z,-5.37
2023-03-01T01:16:34.415Z,-5.34
2023-03-01T01:19:03.804Z,-5.33
2023-03-01T01:21:32.177Z,-5.32
2023-03-01T01:24:00.276Z,-5.29
2023-03-01T01:26:31.618Z,-5.31
2023-03-01T01:29:00.924Z,-5.35
2023-03-01T01:31:29.852Z,-5.38
2023-03-01T01:34:01.445Z,-5.44
2023-03-01T01:36:29.927Z,-5.48
2023-03-01T01:38:58.952Z,-5.49
2023-03-01T01:41:29.290Z,-5.49
2023-03-01T01:44:22.040Z,-5.50
2023-03-01T01:46:51.851Z,-5.52
2023-03-01T01:49:38.623Z,-5.54
2023-03-01T01:52:21.726Z,-5.57
2023-03-01T01:54:56.126Z,-5.58
2023-03-01T01:57:33.907Z,-5.56
2023-03-01T02:00:07.986Z,-5.53
2023-03-01T02:02:44.388Z,-5.53
2023-03-01T02:05:23.562Z,-5.55
2023-03-01T02:07:52.095Z,-5.57
2023-03-01T02:10:23.957Z,-5.63
2023-03-01T02:12:53.596Z,-5.67
2023-03-01T02:15:21.447Z,-5.67
2023-03-01T02:17:49.885Z,-5.66
2023-03-01T02:20:20.514Z,-5.66
2023-03-01T02:22:49.831Z,-5.62
2023-03-01T02:25:20.793Z,-5.62
2023-03-01T02:28:17.001Z,-5.61
2023-03-01T02:31:08.258Z,-5.60
2023-03-01T02:33:38.826Z,-5.66
2023-03-01T02:36:12.655Z,-5.74
2023-03-01T02:38:42.246Z,-5.79
2023-03-01T02:41:14.423Z,-5.90
2023-03-01T02:43:43.077Z,-5.99
2023-03-01T02:46:21.206Z,-5.99
2023-03-01T02:48:52.009Z,-5.97
2023-03-01T02:51:23.055Z,-5.95
2023-03-01T02:54:06.300Z,-5.94
2023-03-01T02:56:34.991Z,-5.92
2023-03-01T02:59:04.865Z,-5.94
2023-03-01T03:01:39.356Z,-5.93
2023-03-01T03:04:12.987Z,-5.93
2023-03-01T03:06:40.949Z,-5.91
2023-03-01T03:09:09.165Z,-5.91
2023-03-01T03:11:38.009Z,-5.93
2023-03-01T03:14:06.869Z,-5.94
2023-03-01T03:16:34.774Z,-5.94
2023-03-01T03:19:06.162Z,-5.96
2023-03-01T03:21:34.861Z,-5.93
2023-03-01T03:24:02.985Z,-5.92
2023-03-01T03:26:31.830Z,-5.92
2023-03-01T03:28:59.949Z,-5.87
2023-03-01T03:31:28.086Z,-5.85
2023-03-01T03:33:56.949Z,-5.85
2023-03-01T03:36:25.469Z,-5.86
2023-03-01T03:38:53.733Z,-5.90
2023-03-01T03:41:21.798Z,-5.96
2023-03-01T03:43:50.130Z,-5.99
2023-03-01T03:46:18.179Z,-6.01
2023-03-01T03:48:46.893Z,-6.03
2023-03-01T03:51:17.600Z,-6.02
2023-03-01T03:53:46.671Z,-5.97
2023-03-01T03:56:15.101Z,-5.97
2023-03-01T03:58:43.048Z,-5.96
2023-03-01T04:01:10.938Z,-6.01
2023-03-01T04:03:38.903Z,-6.05
2023-03-01T04:06:07.118Z,-6.07
2023-03-01T04:08:35.151Z,-6.09
2023-03-01T04:11:25.165Z,-6.10
2023-03-01T04:13:56.137Z,-6.15
2023-03-01T04:16:24.572Z,-6.17
2023-03-01T04:18:54.653Z,-6.15
2023-03-01T04:21:22.996Z,-6.15
2023-03-01T04:23:53.666Z,-6.14
2023-03-01T04:26:21.980Z,-6.16
2023-03-01T04:28:51.473Z,-6.18
2023-03-01T04:31:22.640Z,-6.15
2023-03-01T04:33:56.397Z,-6.13
2023-03-01T04:36:29.568Z,-6.15
2023-03-01T04:38:58.593Z,-6.12
2023-03-01T04:41:27.044Z,-6.11
2023-03-01T04:43:55.159Z,-6.13
2023-03-01T04:46:23.454Z,-6.12
2023-03-01T04:48:51.435Z,-6.11
2023-03-01T04:51:19.613Z,-6.11
2023-03-01T04:53:48.524Z,-6.10
2023-03-01T04:56:18.845Z,-6.07
2023-03-01T04:58:47.669Z,-6.05
2023-03-01T05:01:18.404Z,-6.01
2023-03-01T05:03:51.635Z,-6.00
2023-03-01T05:06:21.431Z,-6.02
2023-03-01T05:08:50.414Z,-6.07
2023-03-01T05:11:18.309Z,-6.10
2023-03-01T05:13:46.367Z,-6.10
2023-03-01T05:16:14.345Z,-6.12
2023-03-01T05:18:42.641Z,-6.15
2023-03-01T05:21:18.279Z,-6.15
2023-03-01T05:23:46.322Z,-6.12
2023-03-01T05:26:28.221Z,-6.10
2023-03-01T05:28:57.942Z,-6.03
2023-03-01T05:31:26.005Z,-5.98
2023-03-01T05:33:54.094Z,-5.91
2023-03-01T05:36:22.073Z,-5.93
2023-03-01T05:38:49.919Z,-5.94
2023-03-01T05:41:20.506Z,-5.98
2023-03-01T05:43:48.426Z,-6.00
2023-03-01T05:46:16.619Z,-6.03
2023-03-01T05:48:44.878Z,-6.06
2023-03-01T05:51:13.234Z,-6.09
2023-03-01T05:53:41.203Z,-6.10
2023-03-01T05:56:09.262Z,-6.10
2023-03-01T05:58:39.719Z,-6.07
2023-03-01T06:01:13.331Z,-6.03
2023-03-01T06:03:41.345Z,-5.97
2023-03-01T06:06:09.182Z,-5.93
2023-03-01T06:08:37.005Z,-5.93
2023-03-01T06:11:06.323Z,-5.91
2023-03-01T06:13:34.250Z,-5.86
2023-03-01T06:16:05.074Z,-5.85
2023-03-01T06:18:33.334Z,-5.84
2023-03-01T06:21:01.340Z,-5.82
2023-03-01T06:23:29.438Z,-5.78
2023-03-01T06:25:57.481Z,-5.75
2023-03-01T06:28:25.454Z,-5.69
2023-03-01T06:30:53.756Z,-5.58
2023-03-01T06:33:23.068Z,-5.49
2023-03-01T06:35:51.677Z,-5.33
2023-03-01T06:38:20.112Z,-5.23
2023-03-01T06:40:55.042Z,-5.19
2023-03-01T06:43:24.566Z,-5.10
2023-03-01T06:45:52.451Z,-5.12
2023-03-01T06:48:20.414Z,-4.99
2023-03-01T06:50:48.460Z,-4.81
2023-03-01T06:53:16.421Z,-4.67
2023-03-01T06:55:44.744Z,-4.56
2023-03-01T06:58:12.898Z,-4.40
2023-03-01T07:00:42.011Z,-4.24
2023-03-01T07:03:10.105Z,-4.07
2023-03-01T07:05:39.168Z,-3.87
2023-03-01T07:08:07.431Z,-3.68
2023-03-01T07:10:35.463Z,-3.48
2023-03-01T07:13:03.451Z,-3.29
2023-03-01T07:15:31.246Z,-3.14
2023-03-01T07:17:59.443Z,-3.01
2023-03-01T07:20:27.453Z,-2.84
2023-03-01T07:22:57.498Z,-2.72
2023-03-01T07:25:26.014Z,-2.58
2023-03-01T07:27:55.022Z,-2.41
2023-03-01T07:30:23.628Z,-2.26
2023-03-01T07:32:53.547Z,-2.11
2023-03-01T07:35:24.388Z,-2.00
2023-03-01T07:37:52.729Z,-1.88
2023-03-01T07:40:20.978Z,-1.82
2023-03-01T07:42:48.935Z,-1.75
2023-03-01T07:45:16.915Z,-1.65
2023-03-01T07:47:44.855Z,-1.56
2023-03-01T07:50:14.485Z,-1.43
2023-03-01T07:52:42.381Z,-1.22
2023-03-01T07:55:10.543Z,-1.02
2023-03-01T07:57:39.460Z,-0.89
2023-03-01T08:00:08.931Z,-0.74
2023-03-01T08:02:43.113Z,-0.54
2023-03-01T08:05:11.670Z,-0.38
2023-03-01T08:07:39.547Z,-0.20
2023-03-01T08:10:08.057Z,-0.08
2023-03-01T08:12:36.188Z,0.05
2023-03-01T08:15:04.699Z,0.16
2023-03-01T08:17:32.660Z,0.31
2023-03-01T08:20:00.501Z,0.47
2023-03-01T08:22:28.335Z,0.63
2023-03-01T08:24:56.904Z,0.84
2023-03-01T08:27:25.631Z,1.03
2023-03-01T08:29:53.691Z,1.21
2023-03-01T08:32:21.988Z,1.35
2023-03-01T08:34:50.026Z,1.59
2023-03-01T08:37:18.099Z,1.72
2023-03-01T08:39:53.518Z,1.89
2023-03-01T08:42:21.401Z,2.04
2023-03-01T08:44:49.475Z,2.27
2023-03-01T08:47:18.584Z,2.46
2023-03-01T08:49:46.393Z,2.64
2023-03-01T08:52:14.445Z,2.83
2023-03-01T08:54:42.288Z,2.98
2023-03-01T08:57:10.789Z,3.15
2023-03-01T08:59:38.739Z,3.24
2023-03-01T09:02:13.506Z,3.34
2023-03-01T09:04:41.758Z,3.43
2023-03-01T09:07:11.094Z,3.53
2023-03-01T09:09:38.981Z,3.61
2023-03-01T09:12:07.223Z,3.73
2023-03-01T09:14:35.298Z,3.79
2023-03-01T09:17:04.201Z,3.90
2023-03-01T09:19:32.529Z,3.90
2023-03-01T09:22:00.544Z,4.04
2023-03-01T09:24:28.576Z,4.17
2023-03-01T09:26:58.052Z,4.33
2023-03-01T09:29:26.983Z,4.39
2023-03-01T09:31:56.501Z,4.47
2023-03-01T09:34:24.902Z,4.52
2023-03-01T09:36:53.099Z,4.61
2023-03-01T09:39:21.818Z,4.77
2023-03-01T09:42:05.669Z,4.79
2023-03-01T09:44:34.393Z,4.82
2023-03-01T09:47:03.689Z,4.84
2023-03-01T09:49:35.040Z,4.81
2023-03-01T09:52:20.313Z,4.75
2023-03-01T09:54:54.090Z,4.81
2023-03-01T09:57:42.523Z,4.99
2023-03-01T10:00:17.714Z,5.05
2023-03-01T10:03:29.957Z,5.11
2023-03-01T10:06:02.157Z,5.24
2023-03-01T10:08:48.863Z,5.35
2023-03-01T10:11:35.433Z,5.51
2023-03-01T10:14:20.749Z,5.61
2023-03-01T10:16:59.928Z,5.65
2023-03-01T10:19:33.563Z,5.76
2023-03-01T10:22:12.382Z,5.77
2023-03-01T10:24:40.398Z,5.88
2023-03-01T10:27:21.062Z,5.99
2023-03-01T10:30:22.127Z,6.10
2023-03-01T10:32:54.203Z,6.21
2023-03-01T10:35:26.093Z,6.24
2023-03-01T10:38:05.855Z,6.22
2023-03-01T10:40:35.685Z,6.24
2023-03-01T10:43:07.459Z,6.32
2023-03-01T10:45:40.642Z,6.40
2023-03-01T10:48:27.100Z,6.53
2023-03-01T10:51:01.181Z,6.68
2023-03-01T10:53:37.637Z,6.67
2023-03-01T10:56:07.405Z,6.70
2023-03-01T10:58:37.859Z,6.81
2023-03-01T11:01:16.541Z,6.83
2023-03-01T11:03:44.610Z,6.83
2023-03-01T11:06:12.436Z,6.86
2023-03-01T11:08:49.126Z,6.88
2023-03-01T11:11:36.098Z,6.96
2023-03-01T11:14:27.280Z,7.00
2023-03-01T11:17:12.966Z,6.94
2023-03-01T11:19:41.147Z,6.95
2023-03-01T11:22:22.281Z,6.96
2023-03-01T11:25:08.811Z,7.03
2023-03-01T11:27:43.049Z,7.13
2023-03-01T11:30:46.554Z,7.16
2023-03-01T11:33:38.279Z,7.25
2023-03-01T11:36:12.415Z,7.41
2023-03-01T11:38:40.804Z,7.45
2023-03-01T11:41:19.513Z,7.47
2023-03-01T11:43:50.688Z,7.50
2023-03-01T11:46:41.841Z,7.58
2023-03-01T11:49:31.626Z,7.56
2023-03-01T11:52:18.075Z,7.60
2023-03-01T11:54:54.996Z,7.70
2023-03-01T11:57:37.759Z,7.72
2023-03-01T12:00:32.456Z,7.66
2023-03-01T12:03:03.387Z,7.59
2023-03-01T12:05:40.219Z,7.64
2023-03-01T12:08:26.646Z,7.68
2023-03-01T12:11:27.884Z,7.67
2023-03-01T12:14:09.248Z,7.69
2023-03-01T12:16:40.560Z,7.72
2023-03-01T12:19:31.960Z,7.75
2023-03-01T12:22:10.278Z,7.88
2023-03-01T12:24:47.388Z,7.98
2023-03-01T12:27:41.482Z,7.98
2023-03-01T12:30:27.540Z,8.00
2023-03-01T12:33:20.193Z,7.94
2023-03-01T12:36:22.511Z,8.00
2023-03-01T12:39:00.434Z,7.93
2023-03-01T12:41:34.285Z,7.95
2023-03-01T12:44:05.086Z,7.86
2023-03-01T12:46:48.624Z,7.81
2023-03-01T12:49:22.364Z,7.64
2023-03-01T12:52:35.335Z,7.62
2023-03-01T12:55:09.824Z,7.69
2023-03-01T12:57:48.370Z,7.72
2023-03-01T13:00:31.884Z,7.62
2023-03-01T13:03:22.001Z,7.66
2023-03-01T13:06:18.063Z,7.70
2023-03-01T13:08:56.224Z,7.74
2023-03-01T13:11:25.113Z,7.80
2023-03-01T13:13:55.554Z,7.78
2023-03-01T13:16:44.088Z,7.80
2023-03-01T13:19:18.165Z,7.87
2023-03-01T13:21:47.966Z,7.87
2023-03-01T13:24:28.044Z,7.81
2023-03-01T13:27:08.162Z,7.82
2023-03-01T13:29:45.143Z,7.82
2023-03-01T13:32:37.888Z,7.76
2023-03-01T13:35:17.971Z,7.78
2023-03-01T13:37:46.828Z,7.69
2023-03-01T13:40:19.562Z,7.65
2023-03-01T13:43:05.594Z,7.57
2023-03-01T13:45:41.241Z,7.54
2023-03-01T13:48:15.965Z,7.55
2023-03-01T13:50:52.561Z,7.50
2023-03-01T13:53:24.223Z,7.56
2023-03-01T13:55:58.740Z,7.57
2023-03-01T13:58:34.092Z,7.53
2023-03-01T14:01:03.504Z,7.52
2023-03-01T14:03:34.029Z,7.52
2023-03-01T14:06:14.964Z,7.56
2023-03-01T14:08:46.259Z,7.54
2023-03-01T14:11:14.301Z,7.51
2023-03-01T14:14:03.908Z,7.42
2023-03-01T14:16:53.834Z,7.39
2023-03-01T14:19:35.128Z,7.41
2023-03-01T14:22:26.329Z,7.40
2023-03-01T14:25:00.544Z,7.31
2023-03-01T14:27:42.982Z,7.27
2023-03-01T14:30:22.916Z,7.33
2023-03-01T14:33:00.183Z,7.36
2023-03-01T14:35:31.018Z,7.42
2023-03-01T14:37:59.196Z,7.36
2023-03-01T14:40:37.993Z,7.35
2023-03-01T14:43:12.599Z,7.32
2023-03-01T14:45:40.780Z,7.33
2023-03-01T14:48:09.226Z,7.34
2023-03-01T14:50:43.377Z,7.32
2023-03-01T14:53:21.399Z,7.33
2023-03-01T14:55:53.303Z,7.28
2023-03-01T14:58:24.625Z,7.27
2023-03-01T15:01:01.836Z,7.25
2023-03-01T15:03:45.005Z,7.16
2023-03-01T15:06:17.854Z,7.15
2023-03-01T15:08:48.979Z,7.17
2023-03-01T15:11:28.132Z,7.16
2023-03-01T15:13:56.273Z,7.10
2023-03-01T15:16:31.184Z,7.07
2023-03-01T15:19:01.626Z,7.08
2023-03-01T15:21:38.909Z,7.04
2023-03-01T15:24:20.487Z,7.03
2023-03-01T15:27:03.031Z,7.05
2023-03-01T15:29:34.424Z,7.01
2023-03-01T15:32:25.820Z,6.97
2023-03-01T15:34:53.844Z,7.02
2023-03-01T15:37:45.134Z,6.98
2023-03-01T15:40:22.496Z,6.96
2023-03-01T15:42:50.865Z,6.91
2023-03-01T15:45:21.703Z,6.85
2023-03-01T15:47:53.758Z,6.77
2023-03-01T15:50:24.442Z,6.73
2023-03-01T15:52:52.979Z,6.67
2023-03-01T15:55:23.997Z,6.63
2023-03-01T15:58:01.677Z,6.61
2023-03-01T16:00:30.324Z,6.55
2023-03-01T16:02:58.471Z,6.49
2023-03-01T16:05:32.134Z,6.40
2023-03-01T16:08:00.083Z,6.32
2023-03-01T16:10:28.865Z,6.26
2023-03-01T16:12:57.060Z,6.17
2023-03-01T16:15:31.248Z,6.08
2023-03-01T16:18:01.068Z,6.00
2023-03-01T16:20:33.443Z,5.95
2023-03-01T16:23:03.967Z,5.87
2023-03-01T16:25:33.347Z,5.79
2023-03-01T16:28:05.132Z,5.71
2023-03-01T16:30:36.240Z,5.61
2023-03-01T16:33:19.220Z,5.47
2023-03-01T16:35:52.629Z,5.25
2023-03-01T16:38:20.481Z,5.11
2023-03-01T16:40:50.632Z,4.91
2023-03-01T16:43:19.211Z,4.71
2023-03-01T16:45:47.770Z,4.51
2023-03-01T16:48:15.903Z,4.33
2023-03-01T16:50:43.871Z,4.14
2023-03-01T16:53:12.083Z,3.93
2023-03-01T16:55:46.442Z,3.78
2023-03-01T16:58:16.565Z,3.64
2023-03-01T17:00:44.483Z,3.52
2023-03-01T17:03:14.893Z,3.42
2023-03-01T17:05:42.993Z,3.32
2023-03-01T17:08:10.910Z,3.18
2023-03-01T17:10:38.942Z,3.06
2023-03-01T17:13:06.805Z,2.94
2023-03-01T17:15:34.782Z,2.83
2023-03-01T17:18:03.830Z,2.64
2023-03-01T17:20:31.858Z,2.50
2023-03-01T17:22:59.833Z,2.38
2023-03-01T17:25:28.741Z,2.26
2023-03-01T17:27:56.835Z,2.16
2023-03-01T17:30:24.841Z,2.01
2023-03-01T17:32:55.859Z,1.90
2023-03-01T17:35:24.116Z,1.78
2023-03-01T17:37:52.012Z,1.73
2023-03-01T17:40:20.082Z,1.67
2023-03-01T17:42:47.977Z,1.62
2023-03-01T17:45:15.960Z,1.55
2023-03-01T17:47:43.993Z,1.50
2023-03-01T17:50:12.523Z,1.43
2023-03-01T17:52:44.029Z,1.38
2023-03-01T17:55:12.325Z,1.30
2023-03-01T17:57:41.621Z,1.20
2023-03-01T18:00:14.639Z,1.09
2023-03-01T18:02:43.234Z,1.01
2023-03-01T18:05:11.765Z,0.95
2023-03-01T18:07:39.828Z,0.87
2023-03-01T18:10:08.710Z,0.81
2023-03-01T18:12:36.689Z,0.74
2023-03-01T18:15:08.286Z,0.70
2023-03-01T18:17:36.290Z,0.63
2023-03-01T18:20:07.233Z,0.58
2023-03-01T18:22:35.359Z,0.49
2023-03-01T18:25:05.203Z,0.43
2023-03-01T18:27:33.567Z,0.34
2023-03-01T18:30:01.702Z,0.27
2023-03-01T18:32:29.916Z,0.21
2023-03-01T18:34:58.050Z,0.19
2023-03-01T18:37:26.043Z,0.14
2023-03-01T18:39:54.609Z,0.09
2023-03-01T18:42:22.720Z,0.05
2023-03-01T18:44:51.109Z,0.01
2023-03-01T18:47:19.153Z,-0.00
2023-03-01T18:49:47.240Z,-0.08
2023-03-01T18:52:15.211Z,-0.12
2023-03-01T18:54:43.062Z,-0.12
2023-03-01T18:57:11.208Z,-0.14
2023-03-01T18:59:39.260Z,-0.16
2023-03-01T19:02:07.359Z,-0.27
2023-03-01T19:04:35.397Z,-0.34
2023-03-01T19:07:04.075Z,-0.38
2023-03-01T19:09:32.058Z,-0.45
2023-03-01T19:12:02.030Z,-0.45
2023-03-01T19:14:30.188Z,-0.47
2023-03-01T19:16:58.169Z,-0.52
2023-03-01T19:19:26.207Z,-0.53
2023-03-01T19:22:05.043Z,-0.54
2023-03-01T19:24:35.192Z,-0.53
2023-03-01T19:27:03.323Z,-0.55
2023-03-01T19:29:31.412Z,-0.61
2023-03-01T19:31:59.651Z,-0.68
2023-03-01T19:34:27.670Z,-0.71
2023-03-01T19:36:55.804Z,-0.75
2023-03-01T19:39:23.644Z,-0.79
2023-03-01T19:41:52.087Z,-0.81
2023-03-01T19:44:24.908Z,-0.83
2023-03-01T19:46:53.934Z,-0.85
2023-03-01T19:49:21.795Z,-0.83
2023-03-01T19:51:49.831Z,-0.87
2023-03-01T19:54:21.814Z,-0.90
2023-03-01T19:56:51.345Z,-0.93
2023-03-01T19:59:24.442Z,-0.95
2023-03-01T20:01:52.776Z,-0.97
2023-03-01T20:04:20.942Z,-1.01
2023-03-01T20:06:49.445Z,-1.03
2023-03-01T20:09:21.898Z,-1.03
2023-03-01T20:11:51.672Z,-1.03
2023-03-01T20:14:21.093Z,-1.02
2023-03-01T20:16:52.153Z,-1.04
2023-03-01T20:19:20.942Z,-1.06
2023-03-01T20:21:49.233Z,-1.05
2023-03-01T20:24:17.291Z,-1.07
2023-03-01T20:26:45.668Z,-1.10
2023-03-01T20:29:13.762Z,-1.17
2023-03-01T20:31:42.653Z,-1.21
2023-03-01T20:34:10.811Z,-1.27
2023-03-01T20:36:39.508Z,-1.33
2023-03-01T20:39:08.065Z,-1.40
2023-03-01T20:41:35.960Z,-1.42
2023-03-01T20:44:06.684Z,-1.39
2023-03-01T20:46:36.461Z,-1.37
2023-03-01T20:49:05.683Z,-1.38
2023-03-01T20:51:33.664Z,-1.39
2023-03-01T20:54:01.524Z,-1.42
2023-03-01T20:56:29.448Z,-1.42
2023-03-01T20:59:05.800Z,-1.47
2023-03-01T21:01:34.154Z,-1.51
2023-03-01T21:04:02.428Z,-1.55
2023-03-01T21:06:31.568Z,-1.58
2023-03-01T21:08:59.971Z,-1.62
2023-03-01T21:11:27.888Z,-1.67
2023-03-01T21:13:56.737Z,-1.69
2023-03-01T21:16:25.721Z,-1.69
2023-03-01T21:18:53.769Z,-1.63
2023-03-01T21:21:24.081Z,-1.62
2023-03-01T21:23:53.872Z,-1.66
2023-03-01T21:26:25.060Z,-1.63
2023-03-01T21:28:58.763Z,-1.58
2023-03-01T21:31:29.080Z,-1.59
2023-03-01T21:34:00.078Z,-1.60
2023-03-01T21:36:29.437Z,-1.66
2023-03-01T21:39:00.901Z,-1.71
2023-03-01T21:41:32.443Z,-1.72
2023-03-01T21:44:03.131Z,-1.77
2023-03-01T21:46:36.490Z,-1.78
2023-03-01T21:49:05.465Z,-1.77
2023-03-01T21:51:33.744Z,-1.75
2023-03-01T21:54:02.171Z,-1.72
2023-03-01T21:56:34.529Z,-1.77
2023-03-01T21:59:02.609Z,-1.73
2023-03-01T22:01:31.363Z,-1.75
2023-03-01T22:04:01.157Z,-1.76
2023-03-01T22:06:41.286Z,-1.80
2023-03-01T22:09:14.968Z,-1.84
2023-03-01T22:11:46.833Z,-1.85
2023-03-01T22:14:16.392Z,-1.83
2023-03-01T22:16:45.770Z,-1.83
2023-03-01T22:19:15.985Z,-1.87
2023-03-01T22:21:46.613Z,-1.88
2023-03-01T22:24:15.122Z,-1.85
2023-03-01T22:26:45.234Z,-1.89
2023-03-01T22:29:19.393Z,-1.89
2023-03-01T22:31:48.001Z,-1.89
2023-03-01T22:34:17.339Z,-1.90
2023-03-01T22:36:46.317Z,-1.92
2023-03-01T22:39:16.226Z,-1.99
2023-03-01T22:41:46.203Z,-2.03
2023-03-01T22:44:22.883Z,-2.06
2023-03-01T22:46:50.910Z,-2.09
2023-03-01T22:49:19.762Z,-2.08
2023-03-01T22:51:48.255Z,-2.11
2023-03-01T22:54:18.741Z,-2.15
2023-03-01T22:56:46.779Z,-2.16
2023-03-01T22:59:16.700Z,-2.16
2023-03-01T23:01:48.111Z,-2.13
2023-03-01T23:04:17.669Z,-2.12
2023-03-01T23:06:54.116Z,-2.14
2023-03-01T23:09:30.919Z,-2.17
2023-03-01T23:12:00.881Z,-2.28
2023-03-01T23:14:31.718Z,-2.28
2023-03-01T23:17:03.300Z,-2.32
2023-03-01T23:19:32.109Z,-2.35
2023-03-01T23:22:00.416Z,-2.35
2023-03-01T23:24:31.978Z,-2.32
2023-03-01T23:27:02.165Z,-2.31
2023-03-01T23:29:31.242Z,-2.29
2023-03-01T23:32:00.143Z,-2.26
2023-03-01T23:34:28.935Z,-2.30
2023-03-01T23:36:58.146Z,-2.32
2023-03-01T23:39:26.368Z,-2.32
2023-03-01T23:41:54.175Z,-2.35
2023-03-01T23:44:23.165Z,-2.39
2023-03-01T23:46:51.319Z,-2.40
2023-03-01T23:49:22.408Z,-2.44
2023-03-01T23:51:50.788Z,-2.48
2023-03-01T23:54:22.423Z,-2.49
2023-03-01T23:56:50.443Z,-2.49
2023-03-01T23:59:21.973Z,-2.50
